»·PEaware :: SWA801 KSLC-KSJC

SWA801 :: KSLC-KSJC

FLIGHT INFORMATION

Flight Status: Arrived
Operator:
Southwest Airlines
More flights by this operator :: More flights under this callsign
Pilot: Evan H. (11904)
Aircraft: BOEING 737-800
(B738)
More flights by this aircraft type
Origin: KSLC Salt Lake City Intl
United States
Destination: KSJC Mineta San Jose Intl
United States
More flights between these airports :: More routes between these airports
Route: +PECOP5 BAM GGULF FRLON2
File this flight plan on PilotEdge
Remarks: PBN / A1B1C1D1S1S2 DOF / 180407 REG / N8645A EET / KZOA0053 OPR / SWA PER / C RMK / TCAS SIMBRIEF
Altitude:
(Current/Filed)
36,000ft
Speed:
(Current/Filed)
462kts
Departed: 06-Apr-18 08:36 PM
Arrived: 06-Apr-18 10:27 PM
Distance/Time
Traveled:
506nm/1:51
Distance/Time
To Go:
Arrived

Flight Plot

Page will automatically refresh every two minutes.

Flight plan parsing failed; only flown route is shown


Map Options




Map Legend


Flown Route
Filed Route
Departure Airport
Arrival Airport
Navaid (VOR, NDB)
Fix

Horizontal Profiles

Position Reports

Time Latitude Longitude Heading Altitude Ground
Speed
06-Apr-18 19:51 40.788854 -111.977957 264 4234ft 0kts
06-Apr-18 19:52 40.788854 -111.977957 264 4234ft 0kts
06-Apr-18 19:53 40.788854 -111.977957 264 4234ft 0kts
06-Apr-18 19:54 40.788854 -111.977957 264 4234ft 0kts
06-Apr-18 19:55 40.788854 -111.977957 264 4234ft 0kts
06-Apr-18 19:56 40.788854 -111.977957 264 4234ft 0kts
06-Apr-18 19:57 40.788854 -111.977957 264 4234ft 0kts
06-Apr-18 19:58 40.788854 -111.977957 264 4234ft 0kts
06-Apr-18 19:59 40.788854 -111.977957 264 4234ft 0kts
06-Apr-18 20:00 40.788854 -111.977957 264 4234ft 0kts
06-Apr-18 20:01 40.788854 -111.977957 264 4234ft 0kts
06-Apr-18 20:02 40.788854 -111.977957 264 4234ft 0kts
06-Apr-18 20:03 40.788854 -111.977957 264 4234ft 0kts
06-Apr-18 20:04 40.788854 -111.977957 264 4234ft 0kts
06-Apr-18 20:05 40.788854 -111.977957 264 4234ft 0kts
06-Apr-18 20:06 40.788854 -111.977957 264 4234ft 0kts
06-Apr-18 20:07 40.788854 -111.977957 264 4235ft 0kts
06-Apr-18 20:08 40.788854 -111.977957 264 4234ft 0kts
06-Apr-18 20:09 40.788854 -111.977957 264 4234ft 0kts
06-Apr-18 20:10 40.788854 -111.977957 264 4234ft 0kts
06-Apr-18 20:11 40.788854 -111.977957 264 4234ft 0kts
06-Apr-18 20:12 40.788854 -111.977957 264 4234ft 0kts
06-Apr-18 20:13 40.788854 -111.977957 264 4234ft 0kts
06-Apr-18 20:14 40.788854 -111.977957 264 4234ft 0kts
06-Apr-18 20:15 40.788854 -111.977957 264 4234ft 0kts
06-Apr-18 20:16 40.788854 -111.977957 264 4234ft 0kts
06-Apr-18 20:17 40.788854 -111.977957 264 4234ft 0kts
06-Apr-18 20:18 40.788854 -111.977957 264 4234ft 0kts
06-Apr-18 20:19 40.788854 -111.977957 264 4234ft 0kts
06-Apr-18 20:20 40.788854 -111.977957 264 4234ft 0kts
06-Apr-18 20:21 40.788854 -111.977957 264 4234ft 0kts
06-Apr-18 20:22 40.788868 -111.977534 273 4234ft 2kts
06-Apr-18 20:23 40.788562 -111.976983 356 4234ft 2kts
06-Apr-18 20:24 40.788374 -111.976968 356 4234ft 0kts
06-Apr-18 20:25 40.788374 -111.976968 356 4234ft 0kts
06-Apr-18 20:26 40.788374 -111.976968 356 4234ft 0kts
06-Apr-18 20:27 40.788374 -111.976968 356 4234ft 0kts
06-Apr-18 20:28 40.790891 -111.977242 354 4234ft 14kts
06-Apr-18 20:29 40.796583 -111.977889 354 4234ft 20kts
06-Apr-18 20:30 40.801027 -111.978424 355 4234ft 12kts
06-Apr-18 20:31 40.805198 -111.978869 351 4234ft 16kts
06-Apr-18 20:32 40.807120 -111.979093 5 4234ft 7kts
06-Apr-18 20:33 40.807510 -111.978644 74 4234ft 0kts
06-Apr-18 20:34 40.807560 -111.977155 116 4234ft 15kts
06-Apr-18 20:35 40.785874 -111.974417 174 4298ft 170kts
06-Apr-18 20:36 40.740556 -111.992400 241 6595ft 201kts
06-Apr-18 20:37 40.752398 -112.075605 292 8176ft 261kts
06-Apr-18 20:38 40.783177 -112.165709 292 10020ft 274kts
06-Apr-18 20:39 40.813584 -112.256122 293 10017ft 264kts
06-Apr-18 20:40 40.843904 -112.347503 291 10912ft 284kts
06-Apr-18 20:41 40.868742 -112.444776 274 14063ft 282kts
06-Apr-18 20:42 40.864318 -112.550427 266 15024ft 289kts
06-Apr-18 20:43 40.856053 -112.658259 265 15429ft 319kts
06-Apr-18 20:44 40.845515 -112.786776 265 16386ft 379kts
06-Apr-18 20:45 40.840916 -112.927910 272 18598ft 387kts
06-Apr-18 20:46 40.841894 -113.070550 272 20675ft 391kts
06-Apr-18 20:47 40.842149 -113.214845 272 22446ft 395kts
06-Apr-18 20:48 40.842451 -113.361351 273 23921ft 400kts
06-Apr-18 20:49 40.842834 -113.508724 273 25232ft 404kts
06-Apr-18 20:50 40.842452 -113.658006 273 26411ft 407kts
06-Apr-18 20:51 40.841796 -113.806200 273 27986ft 399kts
06-Apr-18 20:52 40.841038 -113.950642 273 29712ft 389kts
06-Apr-18 20:53 40.839801 -114.092009 273 31332ft 380kts
06-Apr-18 20:54 40.838497 -114.229792 273 32930ft 370kts
06-Apr-18 20:55 40.837692 -114.364047 274 34366ft 362kts
06-Apr-18 20:56 40.836587 -114.496372 274 35579ft 358kts
06-Apr-18 20:57 40.834961 -114.627751 274 36005ft 358kts
06-Apr-18 20:58 40.832391 -114.758398 270 36009ft 358kts
06-Apr-18 20:59 40.817967 -114.889676 267 36009ft 362kts
06-Apr-18 21:00 40.802537 -115.020704 267 36012ft 361kts
06-Apr-18 21:01 40.787047 -115.152319 267 36014ft 362kts
06-Apr-18 21:02 40.772002 -115.283419 267 36017ft 363kts
06-Apr-18 21:03 40.756803 -115.414760 267 36018ft 363kts
06-Apr-18 21:04 40.741245 -115.546793 267 36019ft 363kts
06-Apr-18 21:05 40.725526 -115.678433 267 36020ft 364kts
06-Apr-18 21:06 40.709555 -115.810738 266 36020ft 365kts
06-Apr-18 21:07 40.693488 -115.942467 266 36019ft 365kts
06-Apr-18 21:08 40.677233 -116.074499 266 36019ft 365kts
06-Apr-18 21:09 40.660735 -116.207102 265 36018ft 366kts
06-Apr-18 21:10 40.644130 -116.339332 265 36016ft 366kts
06-Apr-18 21:11 40.627374 -116.471522 265 36013ft 366kts
06-Apr-18 21:12 40.610730 -116.603960 265 36011ft 366kts
06-Apr-18 21:13 40.593612 -116.735845 265 36010ft 366kts
06-Apr-18 21:14 40.576219 -116.868058 265 36009ft 365kts
06-Apr-18 21:15 40.550639 -116.998232 258 36009ft 371kts
06-Apr-18 21:16 40.518504 -117.127154 258 36008ft 371kts
06-Apr-18 21:17 40.486103 -117.256575 258 36006ft 373kts
06-Apr-18 21:18 40.453844 -117.385714 258 36004ft 373kts
06-Apr-18 21:19 40.421640 -117.515652 257 36000ft 374kts
06-Apr-18 21:20 40.394567 -117.623762 257 35998ft 374kts
06-Apr-18 21:21 40.361817 -117.753574 257 35996ft 376kts
06-Apr-18 21:22 40.328660 -117.884136 256 35988ft 376kts
06-Apr-18 21:23 40.295423 -118.014256 256 35986ft 377kts
06-Apr-18 21:24 40.262023 -118.144287 256 35984ft 377kts
06-Apr-18 21:25 40.222744 -118.296315 256 35982ft 377kts
06-Apr-18 21:26 40.189052 -118.425972 256 35980ft 376kts
06-Apr-18 21:27 40.160829 -118.534049 256 35980ft 376kts
06-Apr-18 21:28 40.126973 -118.663074 256 35980ft 375kts
06-Apr-18 21:29 40.093084 -118.791564 256 35980ft 374kts
06-Apr-18 21:30 40.058977 -118.920207 255 35981ft 373kts
06-Apr-18 21:31 40.024875 -119.048165 255 35982ft 374kts
06-Apr-18 21:32 39.990509 -119.176467 255 35982ft 376kts
06-Apr-18 21:33 39.955623 -119.306026 255 35983ft 379kts
06-Apr-18 21:34 39.914845 -119.456637 255 35984ft 378kts
06-Apr-18 21:35 39.885521 -119.564387 255 35984ft 377kts
06-Apr-18 21:36 39.850385 -119.692905 254 35984ft 377kts
06-Apr-18 21:37 39.815145 -119.821138 254 35997ft 376kts
06-Apr-18 21:38 39.779721 -119.949404 254 36004ft 376kts
06-Apr-18 21:39 39.744270 -120.077123 254 36008ft 376kts
06-Apr-18 21:40 39.708513 -120.205317 254 36034ft 377kts
06-Apr-18 21:41 39.672771 -120.332825 254 36044ft 376kts
06-Apr-18 21:42 39.636895 -120.460168 254 36048ft 376kts
06-Apr-18 21:43 39.600766 -120.587793 254 36050ft 376kts
06-Apr-18 21:44 39.564573 -120.715007 253 36049ft 377kts
06-Apr-18 21:45 39.528124 -120.842507 253 36042ft 376kts
06-Apr-18 21:46 39.491667 -120.969416 253 36035ft 376kts
06-Apr-18 21:47 39.455106 -121.096070 253 36015ft 376kts
06-Apr-18 21:48 39.418217 -121.223253 253 35984ft 376kts
06-Apr-18 21:49 39.381420 -121.349508 252 35970ft 376kts
06-Apr-18 21:50 39.344492 -121.475623 252 35966ft 375kts
06-Apr-18 21:51 39.307306 -121.602007 252 35969ft 375kts
06-Apr-18 21:52 39.270130 -121.727774 252 35967ft 375kts
06-Apr-18 21:53 39.232705 -121.853781 252 35968ft 375kts
06-Apr-18 21:54 39.195273 -121.979228 252 35966ft 376kts
06-Apr-18 21:55 39.157712 -122.104555 251 35964ft 374kts
06-Apr-18 21:56 39.119886 -122.230135 251 35955ft 375kts
06-Apr-18 21:57 39.082021 -122.355284 251 35948ft 376kts
06-Apr-18 21:58 39.043797 -122.481047 251 35943ft 376kts
06-Apr-18 21:59 39.005593 -122.606174 251 35932ft 376kts
06-Apr-18 22:00 38.967399 -122.731234 251 35930ft 376kts
06-Apr-18 22:01 38.928824 -122.856785 250 35924ft 377kts
06-Apr-18 22:02 38.889802 -122.982011 248 35340ft 379kts
06-Apr-18 22:03 38.802912 -123.049178 188 33464ft 435kts
06-Apr-18 22:04 38.682385 -123.030128 178 29513ft 468kts
06-Apr-18 22:05 38.556094 -122.995238 175 26291ft 470kts
06-Apr-18 22:06 38.426533 -122.957370 174 23367ft 469kts
06-Apr-18 22:07 38.302377 -122.920904 174 20758ft 448kts
06-Apr-18 22:08 38.184507 -122.886361 174 18290ft 423kts
06-Apr-18 22:09 38.071999 -122.853405 174 15796ft 405kts
06-Apr-18 22:10 37.969514 -122.823581 174 14673ft 348kts
06-Apr-18 22:11 37.878249 -122.797090 174 13955ft 341kts
06-Apr-18 22:12 37.788428 -122.755230 164 12971ft 336kts
06-Apr-18 22:13 37.706528 -122.713682 165 12443ft 305kts
06-Apr-18 22:14 37.627584 -122.673931 164 10679ft 299kts
06-Apr-18 22:15 37.552877 -122.635721 156 9343ft 286kts
06-Apr-18 22:16 37.505388 -122.551188 120 7962ft 305kts
06-Apr-18 22:17 37.466203 -122.457172 121 6773ft 295kts
06-Apr-18 22:18 37.429853 -122.370979 122 6146ft 262kts
06-Apr-18 22:19 37.407558 -122.295987 80 5593ft 252kts
06-Apr-18 22:20 37.429610 -122.214720 71 5479ft 235kts
06-Apr-18 22:21 37.450284 -122.141717 71 5243ft 194kts
06-Apr-18 22:22 37.465631 -122.080393 89 3809ft 189kts
06-Apr-18 22:23 37.446946 -122.021648 142 2049ft 166kts
06-Apr-18 22:24 37.414132 -121.986285 138 1236ft 150kts
06-Apr-18 22:25 37.381701 -121.950616 136 568ft 150kts
06-Apr-18 22:26 37.358898 -121.925720 140 70ft 23kts
06-Apr-18 22:27 37.359553 -121.921775 50 70ft 23kts
06-Apr-18 22:28 37.360510 -121.921308 138 70ft 8kts
06-Apr-18 22:29 37.360238 -121.920148 48 70ft 1kts

Navigation Log

Ident Type
Flight plan parsing failed, navigation log unavailable